Terminal Aerodrome Forecast
Issued by NWS Newport/Morehead City, NC

Home | Current Version | Previous Version | Text Only | Print | Product List | Glossary On
Versions: 1 2 3 4 5 6 7 8 9 10 11 12 13 14 15 16 17 18 19 20
000
FTUS42 KMHX 201200 CCA
TAFEWN
TAF COR
KEWN 201200Z 2012/2112 VRB03KT 5SM BR SCT008 OVC020
      TEMPO 2012/2014 OVC008
     FM201600 20006KT P6SM BKN015
     FM201800 20008KT P6SM SCT008
     FM210400 18003KT 2SM BR SCT008=

USA.gov is the U.S. government's official web portal to all federal, state and local government web resources and services.